Time;durP1;ratioP1;P1;durP2;ratioP2;P2;SDS_P1;SDS_P2;PMS_P1;PMS_P2;Temp;Humidity;BMP_temperature;BMP_pressure;BME280_temperature;BME280_humidity;BME280_pressure;Samples;Min_cycle;Max_cycle;Signal;HPM_P1;HPM_P2
2022/07/04 00:01:25;;;;;;;4.93;2.43;;;18.60;27.30;;;;;;5015414;28;20158;-86
2022/07/04 00:03:50;;;;;;;6.97;2.80;;;18.50;30.90;;;;;;5015349;28;20177;-86
2022/07/04 00:06:16;;;;;;;6.97;2.87;;;18.40;33.90;;;;;;5015569;28;20193;-81
2022/07/04 00:08:42;;;;;;;4.77;2.57;;;18.30;38.20;;;;;;5014785;28;20769;-80
2022/07/04 00:11:08;;;;;;;8.17;2.67;;;18.20;40.70;;;;;;5014935;28;20183;-84
2022/07/04 00:13:33;;;;;;;7.37;2.67;;;18.20;42.10;;;;;;5014854;28;20175;-79
2022/07/04 00:15:59;;;;;;;5.73;2.50;;;18.20;41.80;;;;;;5021151;28;20173;-87
2022/07/04 00:18:26;;;;;;;4.23;2.60;;;18.20;41.90;;;;;;5042157;28;20191;-79
2022/07/04 00:20:53;;;;;;;5.73;2.43;;;18.30;41.40;;;;;;5044234;28;20171;-86
2022/07/04 00:23:21;;;;;;;6.30;2.50;;;18.30;41.20;;;;;;5042459;28;20189;-85
2022/07/04 00:25:46;;;;;;;5.93;2.83;;;18.30;40.60;;;;;;5044116;28;20154;-80
2022/07/04 00:28:12;;;;;;;4.10;2.20;;;18.50;40.30;;;;;;5039030;28;20549;-85
2022/07/04 00:30:38;;;;;;;4.60;2.10;;;18.40;39.30;;;;;;5035096;28;20265;-84
2022/07/04 00:33:03;;;;;;;5.47;2.10;;;18.40;38.00;;;;;;5036123;28;20577;-84
2022/07/04 00:35:29;;;;;;;4.20;1.97;;;18.40;34.30;;;;;;5036163;28;20202;-84
2022/07/04 00:37:55;;;;;;;8.13;2.40;;;18.40;30.80;;;;;;5035995;28;20205;-82
2022/07/04 00:40:20;;;;;;;6.07;2.40;;;18.30;31.10;;;;;;5035494;28;20272;-87
2022/07/04 00:42:46;;;;;;;4.00;2.07;;;18.20;30.60;;;;;;5048626;28;20174;-79
2022/07/04 00:45:12;;;;;;;4.07;1.97;;;18.00;36.10;;;;;;5048663;28;20173;-81
2022/07/04 00:47:40;;;;;;;4.83;2.23;;;17.90;39.30;;;;;;5040325;28;20274;-80
2022/07/04 00:50:20;;;;;;;4.77;2.20;;;17.90;39.40;;;;;;5035129;28;20545;-87
2022/07/04 00:52:46;;;;;;;5.63;2.17;;;17.80;43.90;;;;;;5033784;28;20244;-80
2022/07/04 00:55:14;;;;;;;5.10;2.00;;;17.80;47.40;;;;;;5034523;28;20189;-86
2022/07/04 00:57:40;;;;;;;5.37;1.90;;;17.80;47.70;;;;;;5033889;28;20557;-86
2022/07/04 01:00:08;;;;;;;4.07;1.97;;;17.80;46.60;;;;;;5033906;28;20203;-84
2022/07/04 01:02:33;;;;;;;5.77;2.00;;;17.90;45.30;;;;;;5034663;28;20211;-86
2022/07/04 01:04:59;;;;;;;3.47;2.00;;;17.90;44.20;;;;;;5032681;28;20577;-82
2022/07/04 01:07:24;;;;;;;4.83;1.90;;;17.90;44.40;;;;;;5033989;28;20638;-86
2022/07/04 01:09:50;;;;;;;4.90;2.03;;;18.00;43.80;;;;;;5033554;28;20182;-87
2022/07/04 01:12:29;;;;;;;6.60;2.30;;;18.00;43.60;;;;;;5034064;28;20174;-82
2022/07/04 01:14:55;;;;;;;4.07;2.10;;;18.10;42.00;;;;;;5033503;28;20166;-86
2022/07/04 01:17:21;;;;;;;6.43;2.27;;;18.10;40.30;;;;;;5034187;28;20166;-86
2022/07/04 01:19:47;;;;;;;6.23;2.40;;;18.10;39.70;;;;;;5046052;28;20176;-81
2022/07/04 01:22:13;;;;;;;5.17;2.30;;;18.10;40.10;;;;;;5053525;28;20213;-78
2022/07/04 01:24:39;;;;;;;3.60;1.50;;;18.00;41.30;;;;;;5054065;28;20177;-83
2022/07/04 01:27:05;;;;;;;6.77;2.00;;;18.00;42.60;;;;;;5048616;28;20204;-81
2022/07/04 01:29:32;;;;;;;6.70;2.20;;;17.90;45.40;;;;;;5048368;28;20210;-79
2022/07/04 01:32:04;;;;;;;6.77;2.30;;;17.80;45.50;;;;;;5049572;28;20166;-80
2022/07/04 01:34:29;;;;;;;5.97;2.37;;;17.70;48.00;;;;;;5046659;28;20172;-80
2022/07/04 01:36:58;;;;;;;5.97;2.03;;;17.70;47.50;;;;;;5048699;28;20173;-78
2022/07/04 01:39:24;;;;;;;6.53;2.00;;;17.60;48.30;;;;;;5039219;28;20225;-84
2022/07/04 01:41:50;;;;;;;5.63;2.10;;;17.40;53.90;;;;;;5036604;28;20243;-84
2022/07/04 01:44:15;;;;;;;9.37;2.17;;;17.20;57.80;;;;;;5036074;28;20194;-85
2022/07/04 01:46:44;;;;;;;6.30;2.40;;;17.10;60.90;;;;;;5034771;28;20533;-80
2022/07/04 01:49:11;;;;;;;4.57;2.40;;;17.10;63.30;;;;;;5033556;28;20208;-78
2022/07/04 01:51:47;;;;;;;5.47;2.00;;;17.00;65.30;;;;;;5034311;28;20172;-83
2022/07/04 01:54:13;;;;;;;7.07;2.30;;;17.10;63.40;;;;;;5048186;28;20165;-76
2022/07/04 01:56:41;;;;;;;7.03;2.20;;;17.00;64.50;;;;;;5054473;28;20258;-78
2022/07/04 01:59:10;;;;;;;8.57;2.53;;;17.00;65.80;;;;;;5051573;28;20234;-83
2022/07/04 02:01:38;;;;;;;4.63;2.10;;;17.00;67.70;;;;;;5042912;28;20174;-79
2022/07/04 02:04:10;;;;;;;8.33;2.43;;;17.00;65.90;;;;;;5044313;28;20169;-86
2022/07/04 02:06:49;;;;;;;7.13;2.30;;;16.90;67.40;;;;;;5038252;28;20161;-77
2022/07/04 02:09:24;;;;;;;9.27;2.23;;;16.80;70.90;;;;;;5036863;28;20205;-86
2022/07/04 02:14:34;;;;;;;9.60;2.80;;;16.70;74.10;;;;;;5050000;28;20263;-81
2022/07/04 02:17:00;;;;;;;7.23;2.50;;;16.60;75.10;;;;;;5037448;28;20212;-82
2022/07/04 02:19:26;;;;;;;7.80;2.90;;;16.60;72.70;;;;;;5037510;28;20641;-78
2022/07/04 02:21:53;;;;;;;9.90;2.97;;;16.60;73.30;;;;;;5036781;28;20193;-78
2022/07/04 02:24:24;;;;;;;8.73;3.10;;;16.60;72.40;;;;;;5036345;28;20169;-85
2022/07/04 02:26:50;;;;;;;6.63;2.50;;;16.50;74.40;;;;;;5036510;28;20177;-85
2022/07/04 02:29:16;;;;;;;7.27;3.00;;;16.50;76.80;;;;;;5036571;28;20658;-83
2022/07/04 02:31:42;;;;;;;9.47;2.57;;;16.40;78.70;;;;;;5036482;28;20166;-84
2022/07/04 02:34:07;;;;;;;7.70;2.50;;;16.40;79.90;;;;;;5036297;28;20691;-83
2022/07/04 02:36:33;;;;;;;8.70;2.50;;;16.30;78.80;;;;;;5036017;28;20510;-81
2022/07/04 02:38:59;;;;;;;6.33;2.50;;;16.40;77.50;;;;;;5036345;28;20181;-85
2022/07/04 02:41:24;;;;;;;5.60;2.50;;;16.30;78.90;;;;;;5039533;28;20185;-88
2022/07/04 02:43:50;;;;;;;8.27;2.83;;;16.20;81.80;;;;;;5054890;28;20180;-77
2022/07/04 02:46:16;;;;;;;8.10;2.97;;;16.20;80.40;;;;;;5055121;28;20213;-79
2022/07/04 02:48:42;;;;;;;8.33;2.67;;;16.30;77.60;;;;;;5056809;28;20308;-80
2022/07/04 02:51:07;;;;;;;5.57;2.50;;;16.20;77.00;;;;;;5053665;28;20178;-82
2022/07/04 02:53:33;;;;;;;7.13;2.50;;;16.00;81.80;;;;;;5047031;28;20549;-79
2022/07/04 02:56:04;;;;;;;5.13;2.40;;;15.90;85.60;;;;;;5048280;28;20188;-79
2022/07/04 02:59:02;;;;;;;7.87;2.93;;;15.80;87.70;;;;;;5045795;28;20169;-77
2022/07/04 03:01:31;;;;;;;7.50;2.57;;;15.90;87.90;;;;;;5041361;28;20166;-86
2022/07/04 03:04:18;;;;;;;4.30;2.07;;;16.00;83.20;;;;;;5036024;28;20201;-80
2022/07/04 03:06:45;;;;;;;4.03;2.10;;;16.00;81.70;;;;;;5034695;28;20581;-83
2022/07/04 03:09:12;;;;;;;7.70;2.20;;;16.10;76.80;;;;;;5036188;28;20296;-84
2022/07/04 03:11:37;;;;;;;5.03;2.40;;;16.00;75.90;;;;;;5035981;28;20169;-79
2022/07/04 03:14:03;;;;;;;4.03;2.30;;;15.90;78.00;;;;;;5036052;28;20184;-84
2022/07/04 03:16:29;;;;;;;6.53;2.40;;;15.80;83.90;;;;;;5047271;28;20229;-77
2022/07/04 03:18:54;;;;;;;7.47;2.57;;;15.80;84.70;;;;;;5052971;28;20170;-79
2022/07/04 03:21:20;;;;;;;6.37;2.33;;;15.70;84.90;;;;;;5049143;28;20257;-83
2022/07/04 03:23:57;;;;;;;8.47;2.53;;;15.70;83.70;;;;;;5040992;28;20541;-78
2022/07/04 03:26:29;;;;;;;6.93;2.70;;;15.70;83.50;;;;;;5037338;28;20173;-78
2022/07/04 03:28:55;;;;;;;8.17;4.10;;;15.60;84.10;;;;;;5035907;28;20213;-86
2022/07/04 03:31:21;;;;;;;8.40;3.10;;;15.80;84.40;;;;;;5035649;28;20169;-87
2022/07/04 03:33:47;;;;;;;6.57;3.30;;;15.60;83.60;;;;;;5035572;28;20166;-82
2022/07/04 03:36:12;;;;;;;8.20;2.60;;;15.60;83.20;;;;;;5034085;28;20211;-82
2022/07/04 03:38:38;;;;;;;6.23;2.83;;;15.60;85.00;;;;;;5034772;28;20162;-85
2022/07/04 03:41:03;;;;;;;8.57;2.57;;;15.60;84.90;;;;;;5034989;28;20570;-84
2022/07/04 03:43:29;;;;;;;7.93;2.73;;;15.50;85.10;;;;;;5036097;28;20188;-86
2022/07/04 03:45:56;;;;;;;7.43;2.80;;;15.50;84.90;;;;;;5037174;28;20233;-86
2022/07/04 03:48:22;;;;;;;10.67;2.63;;;15.50;85.80;;;;;;5036710;28;20233;-86
2022/07/04 03:50:48;;;;;;;5.57;2.60;;;15.50;85.80;;;;;;5035187;28;20177;-79
2022/07/04 03:53:15;;;;;;;6.13;2.40;;;15.50;86.00;;;;;;5034833;28;20264;-80
2022/07/04 03:55:41;;;;;;;5.13;2.57;;;15.60;85.90;;;;;;5035346;28;20651;-82
2022/07/04 03:58:07;;;;;;;6.13;2.70;;;15.60;84.50;;;;;;5034722;28;20174;-82
2022/07/04 04:00:33;;;;;;;8.57;2.50;;;15.70;81.80;;;;;;5035121;28;20177;-81
2022/07/04 04:02:59;;;;;;;7.83;2.50;;;15.60;82.10;;;;;;5035080;28;20158;-84
2022/07/04 04:05:27;;;;;;;6.53;2.93;;;15.60;83.00;;;;;;5035182;28;20238;-82
2022/07/04 04:07:55;;;;;;;5.27;2.57;;;15.80;79.40;;;;;;5034104;28;20791;-85
2022/07/04 04:10:21;;;;;;;5.40;2.43;;;15.80;77.90;;;;;;5033656;28;20220;-84
2022/07/04 04:12:46;;;;;;;5.17;2.03;;;15.90;75.40;;;;;;5034132;28;20200;-86
2022/07/04 04:15:12;;;;;;;6.53;2.60;;;16.00;71.90;;;;;;5033637;28;20181;-86
2022/07/04 04:17:38;;;;;;;8.93;2.63;;;16.00;68.40;;;;;;5033471;28;20268;-81
2022/07/04 04:20:04;;;;;;;6.13;2.57;;;16.00;67.20;;;;;;5034561;28;20169;-87
2022/07/04 04:22:30;;;;;;;6.17;2.10;;;15.90;66.50;;;;;;5034870;28;20259;-86
2022/07/04 04:24:56;;;;;;;8.33;2.80;;;15.90;70.30;;;;;;5034676;28;20220;-80
2022/07/04 04:27:22;;;;;;;5.33;2.10;;;15.90;70.40;;;;;;5034136;28;20209;-84
2022/07/04 04:29:48;;;;;;;7.20;2.30;;;15.90;70.10;;;;;;5035439;28;20287;-79
2022/07/04 04:32:13;;;;;;;9.13;2.73;;;16.00;67.00;;;;;;5034182;28;20178;-87
2022/07/04 04:34:40;;;;;;;8.10;2.50;;;16.20;63.10;;;;;;5033861;28;20638;-85
2022/07/04 04:37:06;;;;;;;6.93;2.67;;;16.30;60.70;;;;;;5032744;28;20170;-84
2022/07/04 04:39:32;;;;;;;10.53;2.67;;;16.20;61.00;;;;;;5034170;28;20173;-82
2022/07/04 04:41:57;;;;;;;6.60;2.73;;;16.20;61.70;;;;;;5034347;28;20185;-79
2022/07/04 04:44:23;;;;;;;7.67;3.10;;;16.10;62.10;;;;;;5034914;28;20634;-85
2022/07/04 04:46:49;;;;;;;6.43;3.00;;;16.10;63.10;;;;;;5034418;28;20633;-86
2022/07/04 04:49:14;;;;;;;7.70;2.57;;;16.10;62.60;;;;;;5033857;28;20567;-86
2022/07/04 04:51:40;;;;;;;6.77;2.47;;;16.20;60.60;;;;;;5034066;28;20208;-78
2022/07/04 04:54:06;;;;;;;5.50;2.27;;;16.10;58.80;;;;;;5033895;28;20653;-81
2022/07/04 04:56:31;;;;;;;6.63;2.53;;;16.10;59.30;;;;;;5034242;28;20170;-86
2022/07/04 04:58:57;;;;;;;4.40;2.33;;;16.20;58.00;;;;;;5034117;28;20177;-81
2022/07/04 05:01:23;;;;;;;7.50;2.63;;;16.30;56.40;;;;;;5033760;28;20174;-85
2022/07/04 05:03:48;;;;;;;4.37;2.47;;;16.30;54.90;;;;;;5033646;28;20172;-81
2022/07/04 05:06:14;;;;;;;5.43;2.63;;;16.40;50.80;;;;;;5033956;28;20166;-83
2022/07/04 05:08:40;;;;;;;7.50;2.70;;;16.60;45.10;;;;;;5033180;28;20284;-84
2022/07/04 05:11:06;;;;;;;8.77;3.07;;;16.50;45.70;;;;;;5045989;28;20622;-78
2022/07/04 05:13:32;;;;;;;7.70;2.10;;;16.50;46.90;;;;;;5041182;28;20170;-83
2022/07/04 05:15:59;;;;;;;4.87;2.50;;;16.50;48.70;;;;;;5034522;28;20165;-79
2022/07/04 05:18:26;;;;;;;10.03;2.80;;;16.50;49.40;;;;;;5034168;28;20661;-80
2022/07/04 05:20:51;;;;;;;5.37;2.30;;;16.60;46.90;;;;;;5033566;28;20186;-80
2022/07/04 05:23:17;;;;;;;7.23;2.60;;;16.70;45.80;;;;;;5033498;28;20181;-78
2022/07/04 05:25:43;;;;;;;9.37;2.50;;;16.80;42.80;;;;;;5034127;28;20174;-83
2022/07/04 05:28:08;;;;;;;6.27;2.27;;;16.80;42.40;;;;;;5034578;28;20689;-83
2022/07/04 05:30:34;;;;;;;9.20;2.17;;;16.80;43.50;;;;;;5036125;28;20177;-79
2022/07/04 05:33:01;;;;;;;5.90;2.30;;;16.90;41.80;;;;;;5040900;28;20169;-78
2022/07/04 05:35:27;;;;;;;7.57;2.37;;;17.00;40.00;;;;;;5052826;28;20161;-79
2022/07/04 05:37:54;;;;;;;7.73;2.27;;;17.10;37.40;;;;;;5048684;28;20240;-85
2022/07/04 05:40:21;;;;;;;6.57;2.23;;;17.30;36.00;;;;;;5044739;28;20536;-81
2022/07/04 05:42:48;;;;;;;7.93;2.50;;;17.40;29.60;;;;;;5044271;28;20205;-83
2022/07/04 05:45:17;;;;;;;7.97;2.37;;;17.50;28.30;;;;;;5038647;28;20567;-86
2022/07/04 05:47:52;;;;;;;6.97;2.80;;;17.50;27.20;;;;;;5037866;28;20202;-86
2022/07/04 05:50:18;;;;;;;6.17;2.40;;;17.60;24.90;;;;;;5069524;28;20213;-78
2022/07/04 05:52:43;;;;;;;5.63;2.30;;;17.40;27.30;;;;;;5039087;28;20173;-85
2022/07/04 05:55:09;;;;;;;9.53;2.33;;;17.30;32.90;;;;;;5038906;28;20177;-84
2022/07/04 05:57:35;;;;;;;7.67;2.90;;;17.30;31.90;;;;;;5038203;28;20178;-83
2022/07/04 06:00:02;;;;;;;7.70;2.50;;;17.20;37.30;;;;;;5047878;28;20181;-81
2022/07/04 06:02:29;;;;;;;8.27;2.63;;;17.30;36.00;;;;;;5052315;28;20196;-77
2022/07/04 06:04:54;;;;;;;11.67;2.87;;;17.20;38.40;;;;;;5055512;28;20184;-77
2022/07/04 06:07:20;;;;;;;9.93;2.63;;;17.40;38.10;;;;;;5051064;28;20165;-85
2022/07/04 06:09:46;;;;;;;7.13;2.63;;;17.30;41.30;;;;;;5042329;28;20240;-81
2022/07/04 06:12:13;;;;;;;7.40;2.67;;;17.40;37.40;;;;;;5042072;28;20177;-82
2022/07/04 06:14:45;;;;;;;8.23;2.30;;;17.50;35.30;;;;;;5037340;28;20158;-82
2022/07/04 06:17:14;;;;;;;9.23;3.00;;;17.60;32.50;;;;;;5038117;28;20189;-84
2022/07/04 06:19:40;;;;;;;7.53;2.43;;;17.60;30.90;;;;;;5048009;28;20138;-79
2022/07/04 06:22:05;;;;;;;6.30;2.67;;;17.50;34.30;;;;;;5053760;28;20221;-83
2022/07/04 06:24:31;;;;;;;6.07;2.80;;;17.40;36.20;;;;;;5057165;28;20165;-77
2022/07/04 06:26:57;;;;;;;8.07;3.00;;;17.30;41.40;;;;;;5057599;28;20196;-78
2022/07/04 06:29:22;;;;;;;4.97;2.23;;;17.30;40.80;;;;;;5046602;28;20213;-78
2022/07/04 06:31:51;;;;;;;10.63;3.13;;;17.30;42.50;;;;;;5045516;28;20185;-80
2022/07/04 06:37:18;;;;;;;9.10;2.83;;;17.40;43.00;;;;;;5026336;28;20293;-82
2022/07/04 06:39:44;;;;;;;5.63;2.60;;;17.50;41.00;;;;;;5019141;28;20533;-87
2022/07/04 06:42:09;;;;;;;4.20;2.30;;;17.70;36.90;;;;;;5019045;28;20233;-81
2022/07/04 06:44:35;;;;;;;5.87;2.07;;;17.90;32.00;;;;;;5018218;28;20257;-79
2022/07/04 06:47:00;;;;;;;7.33;2.60;;;18.10;27.60;;;;;;5018600;28;20166;-79
2022/07/04 06:49:26;;;;;;;8.73;2.40;;;18.10;28.20;;;;;;5018332;28;20254;-80
2022/07/04 06:51:52;;;;;;;7.97;2.57;;;18.20;28.20;;;;;;5020800;28;20211;-84
2022/07/04 06:54:17;;;;;;;9.17;2.00;;;18.30;25.30;;;;;;5019215;28;20270;-82
2022/07/04 06:56:44;;;;;;;6.20;2.47;;;18.50;20.80;;;;;;5016557;28;20273;-80
2022/07/04 06:59:10;;;;;;;6.47;2.47;;;18.60;16.70;;;;;;5032188;28;20522;-86
2022/07/04 07:01:35;;;;;;;7.60;3.03;;;18.70;14.30;;;;;;5016823;28;20185;-82
2022/07/04 07:04:01;;;;;;;5.23;2.47;;;18.80;14.60;;;;;;5016820;28;20607;-86
2022/07/04 07:06:27;;;;;;;8.67;2.33;;;18.90;13.70;;;;;;5015639;28;20183;-86
2022/07/04 07:08:53;;;;;;;7.30;2.37;;;18.90;13.20;;;;;;5021295;28;20213;-87
2022/07/04 07:11:19;;;;;;;6.30;2.33;;;18.80;12.30;;;;;;5016112;28;20177;-79
2022/07/04 07:13:50;;;;;;;7.50;2.10;;;18.80;15.00;;;;;;5016920;28;20253;-82
2022/07/04 07:16:17;;;;;;;6.73;2.37;;;18.80;13.50;;;;;;5016478;28;20166;-86
2022/07/04 07:18:44;;;;;;;5.37;2.30;;;18.90;13.40;;;;;;5017385;28;20255;-88
2022/07/04 07:21:10;;;;;;;12.27;2.77;;;19.00;12.60;;;;;;5016637;28;20636;-86
2022/07/04 07:23:42;;;;;;;12.17;2.87;;;19.20;10.00;;;;;;5014365;28;20181;-80
2022/07/04 07:26:09;;;;;;;8.87;2.63;;;19.30;6.00;;;;;;5030705;28;20210;-80
2022/07/04 07:28:35;;;;;;;5.60;2.23;;;19.20;3.70;;;;;;5015069;28;20261;-87
2022/07/04 07:31:02;;;;;;;6.23;2.27;;;19.10;3.80;;;;;;5015609;28;20182;-87
2022/07/04 07:33:28;;;;;;;8.03;2.33;;;19.20;1.00;;;;;;5014883;28;20174;-81
2022/07/04 07:35:53;;;;;;;8.70;2.23;;;19.30;1.00;;;;;;5015656;28;20174;-81
2022/07/04 07:38:21;;;;;;;11.93;2.20;;;19.20;1.00;;;;;;5014544;28;20515;-84
2022/07/04 07:40:46;;;;;;;9.60;2.23;;;19.40;1.00;;;;;;5014610;28;20171;-81
2022/07/04 07:43:12;;;;;;;8.17;2.17;;;19.60;1.00;;;;;;5014533;28;20174;-82
2022/07/04 07:45:38;;;;;;;9.93;2.40;;;19.70;1.00;;;;;;5014352;28;20507;-80
2022/07/04 07:48:04;;;;;;;7.37;2.20;;;19.70;1.00;;;;;;5015490;28;20679;-81
2022/07/04 07:50:29;;;;;;;10.00;2.33;;;20.00;1.00;;;;;;5019134;28;20606;-81
2022/07/04 07:52:57;;;;;;;11.10;2.00;;;20.10;1.00;;;;;;5020344;28;20201;-82
2022/07/04 07:55:23;;;;;;;9.33;2.40;;;20.10;1.00;;;;;;5019264;28;20231;-86
2022/07/04 07:57:48;;;;;;;5.97;1.90;;;20.10;1.00;;;;;;5016173;28;20618;-82
2022/07/04 08:00:15;;;;;;;7.77;2.30;;;20.30;1.00;;;;;;5015646;28;20200;-85
2022/07/04 08:05:32;;;;;;;6.63;1.67;;;20.20;1.00;;;;;;5014940;28;20164;-80
2022/07/04 08:07:59;;;;;;;8.97;2.30;;;20.20;1.00;;;;;;5015580;28;20688;-81
2022/07/04 08:10:25;;;;;;;15.33;2.20;;;20.30;1.00;;;;;;5015433;28;20179;-80
2022/07/04 08:12:51;;;;;;;8.50;2.07;;;20.30;1.00;;;;;;5019945;28;20169;-85
2022/07/04 08:15:17;;;;;;;6.63;1.57;;;20.30;1.00;;;;;;5020372;28;20213;-79
2022/07/04 08:17:44;;;;;;;4.10;1.27;;;20.30;1.00;;;;;;5017182;28;20249;-85
2022/07/04 08:20:10;;;;;;;4.73;1.43;;;20.40;1.00;;;;;;5016560;28;20511;-84
2022/07/04 08:22:36;;;;;;;8.37;1.70;;;20.50;1.00;;;;;;5013463;28;20585;-85
2022/07/04 08:25:02;;;;;;;8.23;1.53;;;20.60;1.00;;;;;;5015773;28;20171;-86
2022/07/04 08:27:27;;;;;;;5.67;1.70;;;20.70;1.00;;;;;;5015706;28;20302;-86
2022/07/04 08:29:53;;;;;;;11.83;1.47;;;20.80;1.00;;;;;;5015794;28;20685;-83
2022/07/04 08:32:21;;;;;;;7.63;2.20;;;20.70;1.00;;;;;;5016158;28;20200;-81
2022/07/04 08:34:46;;;;;;;9.30;1.80;;;20.80;1.00;;;;;;5015873;28;20590;-80
2022/07/04 08:37:13;;;;;;;5.17;1.83;;;21.00;1.00;;;;;;5015995;28;20184;-86
2022/07/04 08:39:38;;;;;;;3.13;1.30;;;21.10;1.00;;;;;;5016823;28;20263;-80
2022/07/04 08:42:09;;;;;;;6.30;1.40;;;21.10;1.00;;;;;;5016698;28;20699;-84
2022/07/04 08:44:39;;;;;;;9.33;1.90;;;20.90;1.00;;;;;;5017843;28;20558;-78
2022/07/04 08:47:09;;;;;;;4.63;1.40;;;20.90;1.00;;;;;;5017917;28;20256;-85
2022/07/04 08:49:35;;;;;;;5.23;1.30;;;21.00;1.00;;;;;;5026671;28;20209;-79
2022/07/04 08:52:04;;;;;;;8.40;2.00;;;21.10;1.00;;;;;;5027899;28;20184;-82
2022/07/04 09:00:01;;;;;;;5.17;1.50;;;21.50;1.00;;;;;;5025245;28;20184;-83
2022/07/04 09:02:32;;;;;;;3.93;1.50;;;21.40;1.00;;;;;;5041284;28;20166;-79
2022/07/04 09:04:59;;;;;;;5.17;1.43;;;21.30;1.00;;;;;;5024165;28;20179;-84
2022/07/04 09:07:26;;;;;;;3.37;1.20;;;21.30;1.00;;;;;;5024416;28;20163;-80
2022/07/04 09:09:53;;;;;;;4.63;1.23;;;21.20;1.00;;;;;;5023465;28;20286;-79
2022/07/04 09:12:21;;;;;;;4.50;1.20;;;21.20;1.00;;;;;;5017520;28;20171;-86
2022/07/04 09:14:47;;;;;;;4.30;1.20;;;21.30;1.00;;;;;;5020830;28;20186;-83
2022/07/04 09:17:13;;;;;;;7.07;1.80;;;21.40;1.00;;;;;;5020792;28;20698;-79
2022/07/04 09:19:42;;;;;;;5.80;1.17;;;21.30;1.00;;;;;;5021587;28;20161;-79
2022/07/04 09:22:11;;;;;;;8.60;1.30;;;21.30;1.00;;;;;;5019707;28;20617;-86
2022/07/04 09:24:53;;;;;;;4.10;1.10;;;21.50;1.00;;;;;;5022925;28;20184;-85
2022/07/04 09:27:32;;;;;;;4.00;1.27;;;21.60;1.00;;;;;;5028725;28;20199;-81
2022/07/04 09:29:57;;;;;;;4.90;1.40;;;21.60;1.00;;;;;;5038455;28;20289;-87
2022/07/04 09:32:36;;;;;;;7.90;1.40;;;21.50;1.00;;;;;;5038006;28;20202;-84
2022/07/04 09:35:03;;;;;;;4.60;1.40;;;21.40;1.00;;;;;;5038270;28;20173;-83
2022/07/04 09:37:41;;;;;;;8.57;1.90;;;21.50;1.00;;;;;;5039122;28;20169;-84
2022/07/04 09:40:10;;;;;;;4.57;1.77;;;21.60;1.00;;;;;;5037791;28;20243;-85
2022/07/04 09:42:40;;;;;;;5.30;1.93;;;21.80;1.00;;;;;;5037306;28;20180;-79
2022/07/04 09:45:15;;;;;;;2.60;1.10;;;22.20;1.00;;;;;;5039054;28;20172;-85
2022/07/04 09:47:44;;;;;;;4.40;1.30;;;22.10;1.00;;;;;;5038732;28;20243;-87
2022/07/04 09:50:18;;;;;;;5.90;1.70;;;22.10;1.00;;;;;;5038476;28;20168;-80
2022/07/04 09:52:54;;;;;;;3.90;1.50;;;22.20;1.00;;;;;;5038245;28;20174;-88
2022/07/04 09:55:29;;;;;;;4.03;1.70;;;22.40;1.00;;;;;;5041714;28;20223;-85
2022/07/04 09:58:03;;;;;;;4.57;1.13;;;22.30;1.00;;;;;;5038507;28;20172;-84
2022/07/04 10:00:36;;;;;;;3.93;1.37;;;22.30;1.00;;;;;;5051507;28;20180;-80
2022/07/04 10:03:24;;;;;;;2.43;1.17;;;22.30;1.00;;;;;;5057021;28;20156;-77
2022/07/04 10:06:10;;;;;;;4.20;1.77;;;22.20;1.00;;;;;;5042064;28;20162;-85
2022/07/04 10:08:37;;;;;;;2.80;1.17;;;22.30;1.00;;;;;;5042238;28;20224;-81
2022/07/04 10:11:10;;;;;;;4.90;1.63;;;22.50;1.00;;;;;;5039815;28;20174;-87
2022/07/04 10:13:42;;;;;;;4.37;1.40;;;22.60;1.00;;;;;;5037768;28;20168;-80
2022/07/04 10:16:11;;;;;;;3.07;1.23;;;22.70;1.00;;;;;;5045174;28;20220;-79
2022/07/04 10:18:36;;;;;;;6.80;1.60;;;22.60;1.00;;;;;;5045590;28;20150;-80
2022/07/04 10:21:03;;;;;;;3.60;1.20;;;22.70;1.00;;;;;;5047227;28;20706;-78
2022/07/04 10:23:32;;;;;;;3.23;1.40;;;22.90;1.00;;;;;;5047516;28;20189;-80
2022/07/04 10:25:58;;;;;;;4.20;1.80;;;22.60;99.90;;;;;;5039110;28;20211;-82
2022/07/04 10:28:24;;;;;;;3.17;1.50;;;22.50;1.00;;;;;;5037886;28;20673;-85
2022/07/04 10:30:57;;;;;;;5.83;1.80;;;22.70;1.00;;;;;;5051541;28;20185;-79
2022/07/04 10:33:27;;;;;;;4.00;1.93;;;22.90;1.00;;;;;;5056142;28;20171;-82
2022/07/04 10:36:01;;;;;;;3.57;1.60;;;23.10;1.00;;;;;;5052095;28;20175;-79
2022/07/04 10:38:29;;;;;;;4.93;1.83;;;23.00;1.00;;;;;;5041664;28;20177;-84
2022/07/04 10:41:02;;;;;;;4.87;1.90;;;22.70;1.00;;;;;;5039156;28;20163;-84
2022/07/04 10:43:31;;;;;;;5.63;2.00;;;22.40;1.00;;;;;;5036842;28;20154;-79
2022/07/04 10:46:46;;;;;;;4.60;1.60;;;22.60;1.00;;;;;;5037012;28;20246;-83
2022/07/04 10:49:14;;;;;;;4.53;1.50;;;23.00;1.00;;;;;;5036027;28;20297;-86
2022/07/04 10:51:49;;;;;;;4.53;1.50;;;23.10;99.90;;;;;;5036400;28;20179;-84
2022/07/04 10:54:38;;;;;;;5.10;1.77;;;23.20;99.90;;;;;;5036606;28;20196;-79
2022/07/04 10:57:20;;;;;;;5.20;1.90;;;23.30;1.00;;;;;;5036538;28;20175;-83
2022/07/04 10:59:52;;;;;;;5.00;1.47;;;23.50;99.90;;;;;;5036885;28;20176;-81
2022/07/04 11:02:17;;;;;;;3.57;1.53;;;23.60;99.90;;;;;;5036962;28;20174;-82
2022/07/04 11:05:24;;;;;;;5.03;1.40;;;23.60;99.90;;;;;;5037858;28;20192;-81
2022/07/04 11:07:57;;;;;;;3.33;1.57;;;23.70;1.00;;;;;;5050342;28;20261;-79
2022/07/04 11:10:25;;;;;;;3.83;1.60;;;23.60;99.90;;;;;;5052134;28;20195;-77
2022/07/04 11:12:53;;;;;;;2.33;1.10;;;23.70;17.00;;;;;;5056407;28;20167;-79
2022/07/04 11:15:28;;;;;;;3.57;1.67;;;23.80;1.00;;;;;;5055767;28;20167;-79
2022/07/04 11:17:56;;;;;;;3.97;1.50;;;23.90;41.10;;;;;;5055126;28;20172;-78
2022/07/04 11:20:23;;;;;;;3.30;1.33;;;24.10;1.00;;;;;;5046243;28;20178;-80
2022/07/04 11:22:49;;;;;;;8.27;1.57;;;24.30;1.00;;;;;;5045549;28;20211;-79
2022/07/04 11:25:15;;;;;;;4.63;1.67;;;24.30;1.00;;;;;;5047948;28;20229;-83
2022/07/04 11:27:41;;;;;;;5.43;1.63;;;23.70;99.90;;;;;;5042907;28;20255;-80
2022/07/04 11:30:09;;;;;;;3.60;1.63;;;23.60;99.90;;;;;;5031740;28;20186;-79
2022/07/04 11:32:36;;;;;;;4.33;1.50;;;23.50;99.90;;;;;;5038564;28;20194;-79
2022/07/04 11:35:08;;;;;;;6.10;1.43;;;23.40;99.90;;;;;;5037221;28;20165;-80
2022/07/04 11:37:35;;;;;;;6.70;1.90;;;23.40;99.90;;;;;;5035765;28;20252;-80
2022/07/04 11:45:53;;;;;;;3.80;1.60;;;23.70;96.60;;;;;;5035543;28;20181;-85
2022/07/04 11:48:26;;;;;;;5.00;1.70;;;23.80;50.80;;;;;;5037143;28;20191;-84
2022/07/04 11:50:52;;;;;;;3.17;1.27;;;24.00;1.00;;;;;;5036426;28;20378;-85
2022/07/04 11:53:18;;;;;;;4.70;1.60;;;24.10;1.00;;;;;;5037739;28;20165;-82
2022/07/04 11:55:55;;;;;;;6.07;1.70;;;24.30;1.00;;;;;;5034516;28;20176;-80
2022/07/04 11:58:22;;;;;;;4.80;1.80;;;24.50;1.00;;;;;;5035104;28;20159;-83
2022/07/04 12:00:47;;;;;;;4.10;1.50;;;24.40;1.00;;;;;;5033793;28;20634;-82
2022/07/04 12:03:13;;;;;;;4.40;1.80;;;24.30;1.00;;;;;;5035042;28;20176;-82
2022/07/04 12:05:39;;;;;;;3.30;1.60;;;24.40;1.00;;;;;;5034182;28;20290;-80
2022/07/04 12:08:07;;;;;;;4.37;1.50;;;24.50;1.00;;;;;;5034405;28;20282;-83
2022/07/04 12:10:33;;;;;;;6.03;1.57;;;24.40;99.90;;;;;;5034975;28;20499;-81
2022/07/04 12:13:05;;;;;;;3.77;1.50;;;24.20;1.00;;;;;;5034699;28;20172;-86
2022/07/04 12:15:46;;;;;;;3.50;1.40;;;24.10;1.00;;;;;;5035857;28;20202;-80
2022/07/04 12:18:23;;;;;;;2.97;1.50;;;23.70;99.90;;;;;;5034977;28;20254;-85
2022/07/04 12:20:51;;;;;;;5.53;1.80;;;23.60;99.90;;;;;;5035132;28;20170;-82
2022/07/04 12:23:19;;;;;;;3.47;1.30;;;23.70;17.20;;;;;;5034474;28;20168;-78
2022/07/04 12:25:47;;;;;;;4.07;1.20;;;23.80;1.00;;;;;;5034208;28;20158;-85
2022/07/04 12:28:15;;;;;;;4.07;1.40;;;24.00;83.00;;;;;;5034289;28;20202;-86
2022/07/04 12:30:52;;;;;;;2.37;1.23;;;24.10;1.00;;;;;;5034922;28;20182;-80
2022/07/04 12:33:21;;;;;;;2.53;1.07;;;24.00;1.00;;;;;;5034366;28;20175;-79
2022/07/04 12:35:49;;;;;;;2.60;1.17;;;24.10;1.00;;;;;;5034732;28;20245;-82
2022/07/04 12:38:22;;;;;;;3.57;1.13;;;24.30;99.90;;;;;;5035214;28;20204;-80
2022/07/04 12:40:53;;;;;;;2.90;1.33;;;24.50;99.90;;;;;;5034660;28;20661;-81
2022/07/04 12:43:21;;;;;;;3.43;1.10;;;24.60;1.00;;;;;;5034246;28;20170;-81
2022/07/04 12:45:54;;;;;;;2.57;1.30;;;24.50;1.00;;;;;;5035020;28;20205;-86
2022/07/04 12:48:27;;;;;;;3.83;1.10;;;24.20;5.10;;;;;;5033952;28;20691;-83
2022/07/04 12:50:54;;;;;;;3.83;1.70;;;24.20;1.00;;;;;;5034136;28;20171;-80
2022/07/04 12:53:21;;;;;;;3.50;1.23;;;24.10;99.90;;;;;;5034392;28;20212;-81
2022/07/04 12:55:48;;;;;;;4.07;1.33;;;24.00;1.00;;;;;;5034130;28;20171;-87
2022/07/04 12:58:14;;;;;;;3.47;1.07;;;24.10;31.00;;;;;;5034468;28;20177;-82
2022/07/04 13:00:40;;;;;;;2.73;1.10;;;24.50;1.00;;;;;;5037220;28;20570;-79
2022/07/04 13:03:07;;;;;;;4.73;1.10;;;24.60;99.90;;;;;;5035645;28;20173;-80
2022/07/04 13:05:37;;;;;;;3.70;1.63;;;24.70;99.90;;;;;;5035984;28;20222;-80
2022/07/04 13:08:04;;;;;;;3.87;1.10;;;25.00;1.00;;;;;;5035772;28;20173;-81
2022/07/04 13:10:32;;;;;;;5.07;1.13;;;25.30;99.90;;;;;;5035210;28;20260;-79
2022/07/04 13:12:58;;;;;;;5.93;1.20;;;25.00;99.90;;;;;;5034455;28;20643;-84
2022/07/04 13:15:25;;;;;;;3.17;1.30;;;25.10;99.90;;;;;;5037191;28;20165;-85